Time;durP1;ratioP1;P1;durP2;ratioP2;P2;SDS_P1;SDS_P2;PMS_P1;PMS_P2;Temp;Humidity;BMP_temperature;BMP_pressure;BME280_temperature;BME280_humidity;BME280_pressure;Samples;Min_cycle;Max_cycle;Signal;HPM_P1;HPM_P2
2023/04/22 08:05:59;;;;;;;4.53;1.27;;;;;;;16.59;100.00;95648.72;6207712;22;20796;31
2023/04/22 08:08:25;;;;;;;4.53;1.42;;;;;;;16.42;100.00;95643.06;6139205;23;20060;-88
2023/04/22 08:10:51;;;;;;;3.35;1.38;;;;;;;16.35;100.00;95636.97;6136992;23;20016;-88
2023/04/22 08:13:18;;;;;;;3.17;1.23;;;;;;;17.09;100.00;95638.25;6161049;23;20064;-88
2023/04/22 08:15:43;;;;;;;2.92;1.25;;;;;;;17.16;100.00;95630.25;6159869;23;20013;-88
2023/04/22 08:18:09;;;;;;;4.00;1.85;;;;;;;17.35;100.00;95625.84;6162514;23;20095;-89
2023/04/22 08:20:35;;;;;;;5.72;1.30;;;;;;;17.25;100.00;95633.47;6162751;23;20393;-88
2023/04/22 08:23:01;;;;;;;4.25;1.17;;;;;;;18.07;100.00;95629.69;6136397;23;20018;-87
2023/04/22 08:25:27;;;;;;;7.00;1.10;;;;;;;18.60;100.00;95625.63;6159225;23;20035;-88
2023/04/22 08:27:53;;;;;;;2.80;1.20;;;;;;;18.41;100.00;95622.19;6158347;23;20041;-85
2023/04/22 08:30:19;;;;;;;3.50;1.30;;;;;;;18.83;100.00;95616.94;6131752;23;20069;-88
2023/04/22 08:33:15;;;;;;;4.53;1.65;;;;;;;18.63;100.00;95614.50;6149154;23;20045;-90
2023/04/22 08:35:53;;;;;;;5.22;1.50;;;;;;;18.07;100.00;95624.38;6132975;23;20024;-89
2023/04/22 08:38:23;;;;;;;5.10;1.70;;;;;;;17.68;100.00;95623.72;6133019;23;20017;-89
2023/04/22 08:41:23;;;;;;;6.85;1.80;;;;;;;17.94;100.00;95635.19;6137341;23;20028;-89
2023/04/22 08:43:52;;;;;;;4.80;1.60;;;;;;;18.33;100.00;95619.78;6133376;23;20045;-88
2023/04/22 10:47:09;;;;;;;3.88;1.08;;;;;;;21.80;54.65;95570.50;6175118;23;20276;-73
2023/04/22 10:49:35;;;;;;;1.52;0.80;;;;;;;21.72;56.48;95574.38;6172448;23;20412;-76
2023/04/22 10:52:04;;;;;;;8.27;2.05;;;;;;;21.70;57.86;95571.16;6171768;23;20083;-75
2023/04/22 10:54:35;;;;;;;1.50;0.85;;;;;;;21.78;51.02;95567.25;6171497;23;20021;-75
2023/04/22 10:57:01;;;;;;;1.85;0.70;;;;;;;22.20;48.04;95562.25;6145478;23;20013;-75
2023/04/22 10:59:28;;;;;;;1.77;1.10;;;;;;;22.45;49.20;95566.28;6171836;23;20459;-75
2023/04/22 11:01:54;;;;;;;1.25;0.80;;;;;;;22.86;46.73;95569.41;6143471;23;20132;-75
2023/04/22 11:04:22;;;;;;;2.75;0.88;;;;;;;22.69;43.95;95570.28;6145012;23;20097;-75
2023/04/22 11:07:26;;;;;;;2.28;0.95;;;;;;;23.14;45.09;95563.81;6171262;23;20338;-75
2023/04/22 11:09:59;;;;;;;1.38;0.80;;;;;;;23.53;41.48;95558.22;6108002;23;20093;-75
2023/04/22 11:12:44;;;;;;;2.05;0.93;;;;;;;23.80;42.00;95546.59;6108493;23;20025;-83
2023/04/22 11:34:08;;;;;;;5.93;0.90;;;;;;;24.83;40.72;95540.59;6173180;23;20577;-79
2023/04/22 11:36:34;;;;;;;2.55;1.08;;;;;;;24.59;40.34;95546.47;6151355;23;20032;-78
2023/04/22 11:39:00;;;;;;;1.55;0.75;;;;;;;24.20;39.28;95543.31;6173273;23;20012;-78
2023/04/22 11:41:32;;;;;;;1.52;0.93;;;;;;;23.92;39.71;95541.84;6146079;23;20416;-80
2023/04/22 11:43:59;;;;;;;;;;;;;;;23.83;42.99;95541.53;6146330;23;20024;-78
2023/04/22 11:46:37;;;;;;;2.42;0.80;;;;;;;24.20;43.74;95530.69;6145422;23;20228;-78
2023/04/22 11:49:14;;;;;;;2.42;1.05;;;;;;;24.25;39.32;95535.28;6095366;23;20103;-77
2023/04/22 11:51:55;;;;;;;1.70;0.95;;;;;;;24.66;39.74;95536.25;6142662;23;20103;-77
2023/04/22 11:54:36;;;;;;;1.60;0.95;;;;;;;24.46;38.09;95537.00;6121831;23;20324;-78
2023/04/22 11:57:07;;;;;;;4.03;1.60;;;;;;;23.98;41.66;95546.19;6146231;23;20080;-77
2023/04/22 11:59:33;;;;;;;1.85;0.90;;;;;;;24.45;42.24;95540.78;6146908;23;20334;-78
2023/04/22 12:02:03;;;;;;;1.60;1.00;;;;;;;24.78;41.30;95540.56;6146592;23;20075;-78
2023/04/22 12:04:34;;;;;;;2.67;1.00;;;;;;;24.58;40.71;95536.78;6123567;23;20020;-78
2023/04/22 12:07:02;;;;;;;2.35;1.00;;;;;;;24.89;42.49;95540.34;6175416;23;20005;-78
2023/04/22 12:09:29;;;;;;;2.45;0.90;;;;;;;25.73;41.46;95532.84;6173156;23;20021;-77
2023/04/22 12:11:55;;;;;;;2.70;1.10;;;;;;;24.92;40.18;95542.50;6147601;23;20041;-78
2023/04/22 12:14:30;;;;;;;2.35;1.00;;;;;;;24.74;40.96;95542.19;6148535;23;20037;-80
2023/04/22 12:16:57;;;;;;;1.65;1.00;;;;;;;25.36;37.68;95533.94;6126242;23;20479;-82
2023/04/22 12:19:26;;;;;;;2.30;1.20;;;;;;;25.10;39.86;95537.69;6148600;23;20238;-81
2023/04/22 12:21:55;;;;;;;2.70;1.05;;;;;;;24.22;39.03;95536.63;6168819;23;20055;-79
2023/04/22 12:24:29;;;;;;;2.58;1.15;;;;;;;23.80;39.84;95538.53;6129855;23;20025;-79
2023/04/22 12:26:57;;;;;;;2.15;0.90;;;;;;;24.25;39.89;95531.81;6132447;23;20842;-78
2023/04/22 12:29:33;;;;;;;5.88;3.08;;;;;;;24.40;39.08;95537.22;6125358;23;20020;-79
2023/04/22 12:31:59;;;;;;;3.35;1.50;;;;;;;23.33;41.98;95542.75;6145415;23;20025;-78
2023/04/22 12:34:25;;;;;;;1.90;0.88;;;;;;;23.85;40.82;95534.03;6117858;23;20306;-78
2023/04/22 12:36:52;;;;;;;1.58;0.80;;;;;;;24.68;40.83;95526.06;6096120;23;20012;-79
2023/04/22 12:39:18;;;;;;;1.52;0.80;;;;;;;23.99;39.76;95520.94;6120673;23;20115;-76
2023/04/22 12:41:44;;;;;;;2.60;0.95;;;;;;;23.88;39.12;95524.66;6094271;23;20024;-76
2023/04/22 12:44:10;;;;;;;2.72;0.93;;;;;;;24.06;39.24;95526.88;6143403;23;20578;-88
2023/04/22 12:46:39;;;;;;;2.60;1.20;;;;;;;23.85;40.21;95528.66;6138071;23;20009;-86
2023/04/22 12:49:05;;;;;;;3.60;1.15;;;;;;;23.81;42.19;95516.00;6092083;23;20048;-83
2023/04/22 12:51:31;;;;;;;2.88;1.20;;;;;;;23.47;41.86;95524.34;6126159;23;20408;-84
2023/04/22 12:53:57;;;;;;;4.07;1.20;;;;;;;22.82;41.69;95528.88;6135523;23;20453;-84
2023/04/22 12:56:23;;;;;;;2.28;1.25;;;;;;;23.25;41.50;95522.59;6134134;23;20021;-83
2023/04/22 12:58:48;;;;;;;2.38;1.10;;;;;;;23.49;42.31;95523.03;6137005;23;20571;-84
2023/04/22 13:01:14;;;;;;;3.45;1.40;;;;;;;22.86;40.47;95531.84;6140549;23;20099;-84
2023/04/22 13:03:40;;;;;;;2.25;1.30;;;;;;;23.17;40.40;95531.13;6149517;23;20095;-83
2023/04/22 13:06:05;;;;;;;4.13;1.15;;;;;;;22.82;39.53;95524.31;6149977;23;20012;-84
2023/04/22 13:08:31;;;;;;;1.95;1.00;;;;;;;22.50;39.13;95532.31;6126280;23;20799;-84
2023/04/22 13:10:58;;;;;;;4.30;1.60;;;;;;;22.51;38.37;95525.09;6148736;23;20016;-84
2023/04/22 13:13:24;;;;;;;3.03;1.05;;;;;;;23.65;36.97;95520.44;6147664;23;20012;-84
2023/04/22 13:15:51;;;;;;;3.05;1.20;;;;;;;23.60;37.83;95518.53;6124857;23;20442;-83
2023/04/22 13:18:17;;;;;;;2.50;1.08;;;;;;;24.20;39.91;95517.25;6149300;23;20013;-84
2023/04/22 13:20:43;;;;;;;2.83;1.20;;;;;;;24.59;39.32;95508.81;6150713;23;20021;-84
2023/04/22 13:23:11;;;;;;;2.17;1.10;;;;;;;24.05;36.75;95508.34;6125900;23;20004;-84
2023/04/22 13:25:43;;;;;;;3.53;1.30;;;;;;;23.75;37.34;95509.81;6150921;23;20092;-85
2023/04/22 13:28:10;;;;;;;1.88;1.27;;;;;;;23.50;37.05;95500.47;6151736;23;20016;-84
2023/04/22 13:30:36;;;;;;;2.45;1.15;;;;;;;23.37;37.74;95497.44;6126487;23;20063;-84
2023/04/22 13:33:02;;;;;;;1.73;1.02;;;;;;;23.66;38.89;95498.72;6151700;23;20013;-84
2023/04/22 13:35:28;;;;;;;5.57;1.25;;;;;;;23.57;37.75;95496.75;6151664;23;20028;-84
2023/04/22 13:37:53;;;;;;;3.25;1.17;;;;;;;23.43;42.03;95499.09;6151379;23;20005;-84
2023/04/22 13:40:20;;;;;;;2.55;1.30;;;;;;;22.74;40.40;95495.31;6149613;23;20040;-84
2023/04/22 13:42:46;;;;;;;4.38;1.35;;;;;;;22.56;45.64;95493.78;6143192;23;20005;-83
2023/04/22 13:45:12;;;;;;;5.97;1.60;;;;;;;22.62;44.77;95500.00;6119022;23;20031;-84
2023/04/22 13:47:38;;;;;;;2.72;1.13;;;;;;;22.66;48.87;95492.25;6143874;23;20009;-84
2023/04/22 13:50:05;;;;;;;4.05;1.30;;;;;;;22.33;44.98;95500.25;6144052;23;20017;-84
2023/04/22 13:52:30;;;;;;;2.95;1.15;;;;;;;22.36;47.20;95494.38;6164452;23;20004;-84
2023/04/22 13:54:56;;;;;;;2.22;1.00;;;;;;;22.52;54.29;95497.22;6138962;23;20032;-84
2023/04/22 13:57:22;;;;;;;4.20;1.30;;;;;;;22.67;59.52;95492.03;6112035;23;20511;-84
2023/04/22 13:59:50;;;;;;;9.13;1.77;;;;;;;22.21;54.45;95496.09;6137634;23;20522;-84
2023/04/22 14:02:16;;;;;;;1.83;0.98;;;;;;;22.20;51.26;95489.94;6135027;23;20063;-84
2023/04/22 14:04:42;;;;;;;4.05;1.00;;;;;;;22.35;56.59;95492.75;6113001;23;20016;-84
2023/04/22 14:07:08;;;;;;;1.63;0.90;;;;;;;22.40;58.88;95491.19;6139115;23;20007;-83
2023/04/22 14:09:33;;;;;;;3.05;1.15;;;;;;;22.12;60.27;95487.66;6113588;23;20610;-84
2023/04/22 14:11:59;;;;;;;6.72;1.42;;;;;;;22.02;63.22;95485.66;6147806;23;20019;-84
2023/04/22 14:14:25;;;;;;;6.00;1.52;;;;;;;21.95;58.52;95484.22;6149255;23;20012;-84
2023/04/22 14:16:51;;;;;;;6.05;1.73;;;;;;;22.05;59.75;95481.66;6124863;23;20013;-84
2023/04/22 14:19:19;;;;;;;3.42;1.40;;;;;;;22.02;61.83;95490.19;6150535;23;20091;-84
2023/04/22 14:21:44;;;;;;;4.25;1.90;;;;;;;21.88;63.38;95481.72;6149419;23;20013;-84
2023/04/22 14:24:10;;;;;;;4.70;1.67;;;;;;;22.02;59.58;95485.66;6125289;23;20012;-84
2023/04/22 14:26:36;;;;;;;5.32;2.40;;;;;;;22.03;58.64;95489.97;6149506;23;20024;-83
2023/04/22 14:29:03;;;;;;;3.78;1.98;;;;;;;22.01;55.19;95475.19;6123106;23;20519;-84
2023/04/22 14:31:29;;;;;;;5.85;2.15;;;;;;;21.91;55.25;95472.41;6148392;23;20013;-84
2023/04/22 14:33:55;;;;;;;4.90;2.08;;;;;;;22.05;58.81;95476.31;6149589;23;20021;-83
2023/04/22 14:36:20;;;;;;;2.35;1.15;;;;;;;21.73;58.05;95479.69;6146970;23;20052;-84
2023/04/22 14:38:46;;;;;;;3.38;1.30;;;;;;;21.59;59.38;95473.03;6124920;23;20049;-83
2023/04/22 14:41:12;;;;;;;4.72;1.13;;;;;;;21.46;61.28;95473.41;6130081;23;20017;-84
2023/04/22 14:43:38;;;;;;;2.42;1.08;;;;;;;21.43;61.97;95482.75;6178403;23;20008;-84
2023/04/22 14:46:03;;;;;;;3.60;0.98;;;;;;;21.49;64.74;95478.25;6151299;23;20040;-84
2023/04/22 14:48:31;;;;;;;2.72;0.88;;;;;;;21.65;63.10;95480.09;6123155;23;20016;-84
2023/04/22 14:50:58;;;;;;;4.05;1.70;;;;;;;21.41;65.81;95474.16;6121205;23;20009;-84
2023/04/22 14:53:25;;;;;;;2.47;1.25;;;;;;;21.28;68.26;95474.47;6149642;23;20017;-84
2023/04/22 14:55:51;;;;;;;2.75;1.23;;;;;;;20.87;70.65;95482.66;6151842;23;20017;-84
2023/04/22 14:58:17;;;;;;;3.00;1.20;;;;;;;20.97;70.73;95481.19;6151979;23;20063;-83
2023/04/22 15:00:42;;;;;;;2.60;1.15;;;;;;;20.74;74.64;95482.97;6149060;23;20052;-84
2023/04/22 15:03:08;;;;;;;1.52;0.98;;;;;;;20.73;76.60;95480.53;6125450;23;20008;-83
2023/04/22 15:05:34;;;;;;;2.30;1.10;;;;;;;20.66;76.39;95480.69;6149315;23;20036;-84
2023/04/22 15:07:59;;;;;;;2.88;1.00;;;;;;;20.57;73.61;95479.47;6126186;23;20017;-74
2023/04/22 15:10:25;;;;;;;2.60;1.25;;;;;;;20.68;72.99;95484.72;6148513;23;20043;-83
2023/04/22 15:12:52;;;;;;;1.80;1.02;;;;;;;20.73;73.23;95486.69;6123588;23;20217;-84
2023/04/22 15:15:18;;;;;;;4.13;1.55;;;;;;;20.61;74.38;95477.91;6148492;23;20075;-84
2023/04/22 15:17:45;;;;;;;5.10;1.73;;;;;;;20.61;75.25;95484.06;6126077;23;20017;-84
2023/04/22 15:20:12;;;;;;;2.60;1.20;;;;;;;20.39;77.47;95486.59;6148762;23;20032;-77
2023/04/22 15:22:40;;;;;;;3.15;1.40;;;;;;;20.38;77.23;95479.63;6148548;23;20079;-84
2023/04/22 16:10:49;;;;;;;6.95;3.78;;;;;;;20.12;88.35;95465.00;6091024;23;20065;-84
2023/04/22 16:14:22;;;;;;;8.73;4.43;;;;;;;20.00;89.85;95462.34;6043939;23;20529;-84
2023/04/22 16:17:50;;;;;;;7.35;3.00;;;;;;;19.99;89.33;95458.06;5939650;24;20050;-83
2023/04/22 16:20:44;;;;;;;3.88;2.03;;;;;;;19.90;93.15;95467.50;5939914;24;20024;-83
2023/04/22 17:40:07;;;;;;;10.90;5.50;;;;;;;18.68;100.00;95491.31;6181878;23;20016;-83
2023/04/22 17:43:16;;;;;;;9.20;4.07;;;;;;;18.49;100.00;95487.94;6162349;23;20020;-82
2023/04/22 17:46:31;;;;;;;15.57;7.88;;;;;;;18.49;100.00;95488.72;6123723;23;20021;-83
2023/04/22 17:49:15;;;;;;;6.63;3.10;;;;;;;18.43;100.00;95488.81;6126031;23;20020;-83
2023/04/22 18:00:25;;;;;;;10.48;7.15;;;;;;;18.19;100.00;95491.41;6030902;23;20080;-84
2023/04/22 18:04:18;;;;;;;15.88;11.48;;;;;;;18.23;100.00;95497.09;6003087;23;20023;-84
2023/04/22 18:15:29;;;;;;;9.45;5.97;;;;;;;17.90;100.00;95508.94;5951293;23;20148;-84
2023/04/22 18:18:02;;;;;;;12.13;5.90;;;;;;;17.95;100.00;95516.28;6093142;23;20029;-83
2023/04/22 18:20:28;;;;;;;5.78;3.92;;;;;;;17.93;100.00;95513.81;6106360;23;20121;-83
2023/04/22 18:22:55;;;;;;;6.72;4.28;;;;;;;17.79;100.00;95518.47;6109870;23;20016;-84
2023/04/22 18:25:21;;;;;;;7.78;4.50;;;;;;;17.87;100.00;95523.53;6128684;23;20013;-84
2023/04/22 18:27:53;;;;;;;9.70;5.43;;;;;;;17.76;100.00;95518.09;6130326;23;20096;-83
2023/04/22 18:30:22;;;;;;;9.77;5.90;;;;;;;17.84;100.00;95523.13;6129686;23;20429;-83
2023/04/22 18:32:52;;;;;;;7.40;5.07;;;;;;;17.80;100.00;95525.41;6152954;23;20441;-89
2023/04/22 18:35:18;;;;;;;9.55;4.70;;;;;;;17.78;100.00;95524.03;6154092;23;20495;-84
2023/04/22 18:37:45;;;;;;;7.82;5.00;;;;;;;17.73;100.00;95527.31;6154787;23;20017;-85
2023/04/22 18:40:11;;;;;;;23.15;13.85;;;;;;;17.52;100.00;95528.56;6179384;23;20017;-84
2023/04/22 18:42:37;;;;;;;17.65;9.68;;;;;;;17.41;100.00;95539.91;6152376;23;20697;-84
2023/04/22 18:45:06;;;;;;;20.33;10.77;;;;;;;17.45;100.00;95538.44;6154289;23;20389;-84
2023/04/22 18:47:35;;;;;;;16.70;9.90;;;;;;;17.48;100.00;95547.84;6151560;23;20084;-84
2023/04/22 18:50:02;;;;;;;17.73;8.77;;;;;;;17.44;100.00;95552.78;6154487;23;20020;-85
2023/04/22 18:52:28;;;;;;;17.02;8.55;;;;;;;17.41;100.00;95561.19;6130147;23;20120;-85
2023/04/22 18:54:54;;;;;;;10.98;5.72;;;;;;;17.41;100.00;95564.66;6130451;23;20756;-85
2023/04/22 18:57:19;;;;;;;6.38;3.50;;;;;;;17.32;100.00;95565.94;6130217;23;20052;-85
2023/04/22 18:59:45;;;;;;;9.18;4.28;;;;;;;17.28;100.00;95566.63;6130608;23;20009;-85
2023/04/22 19:02:12;;;;;;;6.22;4.10;;;;;;;17.17;100.00;95566.28;6154421;23;20015;-85
2023/04/22 19:04:38;;;;;;;8.27;3.97;;;;;;;17.17;100.00;95576.91;6155364;23;20001;-85
2023/04/22 19:07:04;;;;;;;11.20;5.07;;;;;;;17.01;100.00;95580.09;6154594;23;20011;-85
2023/04/22 19:09:31;;;;;;;7.30;3.47;;;;;;;16.81;100.00;95574.91;6155955;23;20716;-85
2023/04/22 19:11:57;;;;;;;7.22;3.88;;;;;;;16.69;100.00;95580.06;6154725;23;20445;-85
2023/04/22 19:14:41;;;;;;;6.07;3.78;;;;;;;16.67;100.00;95583.97;6155092;23;20111;-85
2023/04/22 19:17:08;;;;;;;6.93;3.70;;;;;;;16.70;100.00;95581.69;6155584;23;20020;-85
2023/04/22 19:19:33;;;;;;;5.35;3.20;;;;;;;16.47;100.00;95586.72;6131197;23;20040;-85
2023/04/22 19:22:00;;;;;;;5.43;2.70;;;;;;;16.32;100.00;95583.50;6155407;23;20672;-85
2023/04/22 19:24:34;;;;;;;5.40;3.05;;;;;;;16.32;100.00;95583.50;6129205;23;20024;-85
2023/04/22 19:27:11;;;;;;;7.07;2.45;;;;;;;16.30;100.00;95589.03;6156593;23;20012;-84
2023/04/22 19:29:41;;;;;;;5.03;2.90;;;;;;;16.29;100.00;95589.25;6154743;23;20040;-84
2023/04/22 19:32:22;;;;;;;6.25;3.08;;;;;;;16.03;100.00;95590.97;6154237;23;20021;-85
2023/04/22 19:34:48;;;;;;;4.65;2.67;;;;;;;15.92;100.00;95599.56;6156474;23;20017;-85
2023/04/22 19:37:14;;;;;;;5.57;2.63;;;;;;;15.89;100.00;95599.97;6132526;23;20005;-85
2023/04/22 19:39:40;;;;;;;6.73;3.43;;;;;;;15.81;100.00;95603.69;6157355;23;20017;-85
2023/04/22 19:42:06;;;;;;;6.63;3.67;;;;;;;15.78;100.00;95602.25;6161668;23;20016;-84
2023/04/22 19:44:31;;;;;;;7.20;3.53;;;;;;;15.70;100.00;95605.13;6158324;23;20522;-85
2023/04/22 19:47:00;;;;;;;6.72;3.33;;;;;;;15.72;100.00;95615.50;6155053;23;20013;-84
2023/04/22 19:49:29;;;;;;;5.03;2.50;;;;;;;15.77;100.00;95619.19;6156296;23;20015;-85
2023/04/22 19:51:56;;;;;;;4.83;2.47;;;;;;;15.88;100.00;95615.06;6129480;23;20407;-85
2023/04/22 19:54:27;;;;;;;7.13;2.87;;;;;;;15.81;100.00;95627.53;6129737;23;20016;-85
2023/04/22 19:56:57;;;;;;;5.87;2.33;;;;;;;15.69;100.00;95627.38;6155289;23;20023;-84
2023/04/22 19:59:23;;;;;;;7.40;2.75;;;;;;;15.70;100.00;95626.34;6155118;23;20384;-85
2023/04/22 20:01:53;;;;;;;4.53;2.30;;;;;;;15.63;100.00;95628.16;6129600;23;20068;-84
2023/04/22 20:04:20;;;;;;;6.70;4.33;;;;;;;15.58;100.00;95622.63;6130746;23;20024;-84
2023/04/22 20:06:46;;;;;;;10.13;5.73;;;;;;;15.50;100.00;95618.38;6157738;23;20020;-85
2023/04/22 20:09:12;;;;;;;7.73;4.40;;;;;;;15.46;100.00;95617.16;6172419;23;20148;-84
2023/04/22 20:11:39;;;;;;;6.93;2.47;;;;;;;15.41;100.00;95618.78;6161792;23;20017;-85
2023/04/22 20:14:08;;;;;;;8.80;2.50;;;;;;;15.43;100.00;95622.03;6164781;23;20016;-84
2023/04/22 20:16:34;;;;;;;7.33;2.33;;;;;;;15.26;100.00;95630.41;6156937;23;20020;-85
2023/04/22 20:19:00;;;;;;;5.23;2.60;;;;;;;15.27;100.00;95634.66;6157424;23;20036;-84
2023/04/22 20:21:27;;;;;;;6.67;3.20;;;;;;;15.20;100.00;95641.81;6158399;23;20045;-85
2023/04/22 20:23:55;;;;;;;8.47;2.70;;;;;;;15.10;100.00;95636.09;6157051;23;20017;-84
2023/04/22 20:26:21;;;;;;;6.17;2.43;;;;;;;15.01;100.00;95645.22;6157741;23;20005;-84
2023/04/22 20:28:50;;;;;;;4.07;2.10;;;;;;;14.83;100.00;95657.22;6131006;23;20080;-84
2023/04/22 20:31:19;;;;;;;6.00;2.60;;;;;;;14.82;100.00;95660.88;6131942;23;20012;-84
2023/04/22 20:33:46;;;;;;;6.83;2.30;;;;;;;14.72;100.00;95663.09;6098577;23;20024;-84
2023/04/22 20:36:14;;;;;;;6.63;2.40;;;;;;;14.63;100.00;95666.94;6121378;23;20024;-85
2023/04/22 20:39:00;;;;;;;4.60;2.80;;;;;;;14.51;100.00;95665.84;6097964;23;20015;-84
2023/04/22 20:41:25;;;;;;;8.30;5.03;;;;;;;14.43;100.00;95673.94;6118948;23;20024;-84
2023/04/22 20:43:53;;;;;;;8.90;5.47;;;;;;;14.48;100.00;95679.44;6117675;23;20013;-84
2023/04/22 20:46:21;;;;;;;4.50;2.33;;;;;;;14.38;100.00;95680.63;6118342;23;20302;-84
2023/04/22 20:48:47;;;;;;;5.23;2.50;;;;;;;14.42;100.00;95680.22;6117503;23;20016;-84
2023/04/22 20:51:13;;;;;;;4.80;2.80;;;;;;;14.36;100.00;95680.00;6094603;23;20464;-84
2023/04/22 20:53:39;;;;;;;5.07;2.43;;;;;;;14.36;100.00;95684.50;6113467;23;20017;-84
2023/04/22 20:56:07;;;;;;;4.03;2.37;;;;;;;14.27;100.00;95673.25;6093297;23;20416;-88
2023/04/22 20:58:32;;;;;;;5.53;2.70;;;;;;;14.32;100.00;95654.97;6090213;23;20099;-82
2023/04/22 21:00:58;;;;;;;25.87;14.50;;;;;;;14.48;100.00;95656.44;6110488;23;20017;-85
2023/04/22 21:03:28;;;;;;;29.73;9.03;;;;;;;14.30;100.00;95648.25;6130774;23;20013;-84
2023/04/22 21:05:55;;;;;;;131.70;70.17;;;;;;;14.24;100.00;95641.91;6155648;23;20132;-84
2023/04/22 21:08:24;;;;;;;156.77;80.50;;;;;;;14.45;100.00;95640.16;6158016;23;20441;-84
2023/04/22 21:10:55;;;;;;;162.47;84.67;;;;;;;14.49;100.00;95652.00;6156241;23;20020;-84
2023/04/22 21:13:25;;;;;;;44.50;25.27;;;;;;;14.30;100.00;95659.63;6129496;23;20024;-84
2023/04/22 21:16:00;;;;;;;18.23;8.63;;;;;;;14.27;100.00;95667.94;6154245;23;20024;-85
2023/04/22 21:23:05;;;;;;;20.40;12.33;;;;;;;14.37;100.00;95644.59;6114067;23;20077;-84
2023/04/22 21:30:46;;;;;;;10.60;5.67;;;;;;;14.18;100.00;95645.31;6082413;23;20627;-84
2023/04/22 21:34:50;;;;;;;6.00;3.20;;;;;;;14.03;100.00;95647.28;6054380;23;20077;-85
2023/04/22 21:46:35;;;;;;;13.53;7.57;;;;;;;13.94;100.00;95632.59;5913309;24;20738;-84
2023/04/22 21:50:36;;;;;;;10.90;4.13;;;;;;;13.72;100.00;95629.22;5886184;24;20073;-84
2023/04/22 21:54:04;;;;;;;8.67;4.60;;;;;;;13.81;100.00;95634.13;5885280;24;20254;-84
2023/04/22 22:05:35;;;;;;;11.23;5.37;;;;;;;13.62;100.00;95626.91;5876385;24;20081;-84
2023/04/22 22:09:08;;;;;;;10.82;5.18;;;;;;;13.47;100.00;95627.00;5836342;24;20021;-84
2023/04/22 22:13:08;;;;;;;8.67;5.67;;;;;;;13.52;100.00;95629.06;5779234;24;20491;-84
2023/04/22 22:15:35;;;;;;;10.93;6.40;;;;;;;13.48;100.00;95633.09;5782090;24;20157;-80
2023/04/22 22:18:54;;;;;;;8.80;5.87;;;;;;;13.46;100.00;95629.84;5829694;24;20026;-84
2023/04/22 22:22:08;;;;;;;16.30;10.52;;;;;;;13.16;100.00;95646.63;5775671;24;20251;-83
2023/04/22 22:29:46;;;;;;;9.37;5.63;;;;;;;13.17;100.00;95642.16;5913795;24;20142;-82
2023/04/22 22:37:58;;;;;;;9.27;4.70;;;;;;;13.19;100.00;95646.25;5912473;24;20070;-83
2023/04/22 22:46:00;;;;;;;7.00;3.77;;;;;;;13.12;100.00;95640.09;5965364;23;20089;-83
2023/04/22 22:53:06;;;;;;;8.37;4.10;;;;;;;13.04;100.00;95642.03;6027179;23;20047;-83
2023/04/22 22:56:38;;;;;;;6.27;3.47;;;;;;;12.96;100.00;95651.72;6012765;23;20814;-83
2023/04/22 23:27:23;;;;;;;5.30;3.27;;;;;;;13.10;100.00;95641.28;5993113;23;20035;-84
2023/04/22 23:30:02;;;;;;;10.03;3.73;;;;;;;13.11;100.00;95641.09;6083522;23;20417;-83
2023/04/22 23:32:31;;;;;;;6.03;3.27;;;;;;;13.09;100.00;95634.38;6143884;23;20100;-83
2023/04/22 23:34:59;;;;;;;5.87;3.77;;;;;;;13.08;100.00;95633.56;6119791;23;20016;-83
2023/04/22 23:37:27;;;;;;;6.67;3.43;;;;;;;13.09;100.00;95624.63;6144438;23;20326;-83
2023/04/22 23:39:53;;;;;;;6.90;3.30;;;;;;;13.13;100.00;95627.72;6144980;23;20013;-83
2023/04/22 23:42:18;;;;;;;6.70;2.73;;;;;;;13.10;100.00;95625.44;6143566;23;20448;-84
2023/04/22 23:44:44;;;;;;;7.83;3.50;;;;;;;13.04;100.00;95618.28;6145088;23;20009;-83
2023/04/22 23:47:10;;;;;;;5.43;3.30;;;;;;;13.01;100.00;95616.00;6143749;23;20017;-84
2023/04/22 23:49:35;;;;;;;6.87;3.50;;;;;;;12.96;100.00;95614.75;6145414;23;20028;-83
2023/04/22 23:52:01;;;;;;;6.70;3.23;;;;;;;13.04;100.00;95605.06;6144292;23;20531;-83
2023/04/22 23:54:27;;;;;;;5.93;3.77;;;;;;;13.03;100.00;95598.19;6145759;23;20059;-83
2023/04/22 23:56:53;;;;;;;6.20;3.37;;;;;;;13.05;100.00;95601.44;6145310;23;20029;-83
2023/04/22 23:59:19;;;;;;;5.53;3.03;;;;;;;13.06;100.00;95609.16;6172045;23;20019;-83
